createdAt,value
2018-07-02T00:00:42.359Z,20.30
2018-07-02T00:03:09.891Z,20.30
2018-07-02T00:05:48.910Z,20.20
2018-07-02T00:08:16.352Z,20.20
2018-07-02T00:10:43.812Z,20.10
2018-07-02T00:13:11.272Z,20.10
2018-07-02T00:15:38.703Z,20.00
2018-07-02T00:18:06.169Z,20.00
2018-07-02T00:20:33.667Z,20.00
2018-07-02T00:23:01.100Z,19.90
2018-07-02T00:25:28.550Z,19.90
2018-07-02T00:27:55.990Z,19.80
2018-07-02T00:30:23.456Z,19.80
2018-07-02T00:32:50.896Z,19.80
2018-07-02T00:35:18.351Z,19.70
2018-07-02T00:37:45.802Z,19.70
2018-07-02T00:40:13.268Z,19.70
2018-07-02T00:42:40.766Z,19.60
2018-07-02T00:45:08.198Z,19.60
2018-07-02T00:47:35.637Z,19.50
2018-07-02T00:50:03.149Z,19.50
2018-07-02T00:52:30.601Z,19.40
2018-07-02T00:54:58.027Z,19.40
2018-07-02T00:57:25.459Z,19.40
2018-07-02T00:59:52.989Z,19.40
2018-07-02T01:02:20.556Z,19.30
2018-07-02T01:04:47.987Z,19.30
2018-07-02T01:07:15.438Z,19.20
2018-07-02T01:09:42.891Z,19.20
2018-07-02T01:12:10.358Z,19.10
2018-07-02T01:14:37.825Z,19.10
2018-07-02T01:17:05.482Z,19.10
2018-07-02T01:19:32.957Z,19.00
2018-07-02T01:22:00.420Z,19.00
2018-07-02T01:24:27.896Z,19.00
2018-07-02T01:26:55.333Z,18.90
2018-07-02T01:29:22.783Z,18.90
2018-07-02T01:31:52.270Z,18.80
2018-07-02T01:34:19.720Z,18.80
2018-07-02T01:36:47.177Z,18.80
2018-07-02T01:39:14.664Z,18.70
2018-07-02T01:41:42.095Z,18.70
2018-07-02T01:44:09.565Z,18.70
2018-07-02T01:46:37.007Z,18.60
2018-07-02T01:49:04.464Z,18.60
2018-07-02T01:51:32.210Z,18.50
2018-07-02T01:53:59.698Z,18.50
2018-07-02T01:56:27.132Z,18.40
2018-07-02T01:58:54.559Z,18.40
2018-07-02T02:01:22.033Z,18.40
2018-07-02T02:03:49.510Z,18.30
2018-07-02T02:06:16.934Z,18.30
2018-07-02T02:08:44.556Z,18.30
2018-07-02T02:11:12.024Z,18.20
2018-07-02T02:13:39.450Z,18.20
2018-07-02T02:16:06.915Z,18.20
2018-07-02T02:18:34.381Z,18.10
2018-07-02T02:21:01.835Z,18.10
2018-07-02T02:23:29.296Z,18.00
2018-07-02T02:25:56.751Z,18.00
2018-07-02T02:28:24.212Z,18.00
2018-07-02T02:30:51.724Z,17.90
2018-07-02T02:33:19.154Z,17.90
2018-07-02T02:35:46.606Z,17.90
2018-07-02T02:38:14.054Z,17.80
2018-07-02T02:40:41.476Z,17.80
2018-07-02T02:43:08.944Z,17.80
2018-07-02T02:45:36.385Z,17.70
2018-07-02T02:48:03.888Z,17.70
2018-07-02T02:50:31.374Z,17.60
2018-07-02T02:52:58.826Z,17.60
2018-07-02T02:55:26.305Z,17.50
2018-07-02T02:57:53.740Z,17.50
2018-07-02T03:00:21.159Z,17.40
2018-07-02T03:02:48.901Z,17.40
2018-07-02T03:05:16.348Z,17.40
2018-07-02T03:07:44.187Z,17.30
2018-07-02T03:10:11.662Z,17.30
2018-07-02T03:12:39.120Z,17.30
2018-07-02T03:15:06.637Z,17.20
2018-07-02T03:17:34.081Z,17.20
2018-07-02T03:20:01.540Z,17.20
2018-07-02T03:22:28.973Z,17.10
2018-07-02T03:24:56.403Z,17.10
2018-07-02T03:27:23.837Z,17.10
2018-07-02T03:29:51.292Z,17.10
2018-07-02T03:32:18.758Z,17.10
2018-07-02T03:34:46.225Z,17.10
2018-07-02T03:37:13.729Z,17.00
2018-07-02T03:39:41.181Z,17.10
2018-07-02T03:42:08.603Z,17.10
2018-07-02T03:44:36.059Z,17.00
2018-07-02T03:47:03.500Z,17.00
2018-07-02T03:49:30.996Z,17.00
2018-07-02T03:51:58.490Z,17.00
2018-07-02T03:54:25.862Z,17.00
2018-07-02T03:56:53.303Z,17.00
2018-07-02T03:59:20.745Z,17.00
2018-07-02T04:01:48.175Z,17.00
2018-07-02T04:04:15.827Z,17.00
2018-07-02T04:06:43.286Z,17.00
2018-07-02T04:09:12.588Z,17.00
2018-07-02T04:11:40.147Z,17.00
2018-07-02T04:14:07.920Z,17.00
2018-07-02T04:16:35.583Z,17.00
2018-07-02T04:19:08.252Z,17.00
2018-07-02T04:21:35.645Z,17.00
2018-07-02T04:24:03.111Z,17.00
2018-07-02T04:26:30.559Z,17.00
2018-07-02T04:28:57.951Z,17.10
2018-07-02T04:31:25.544Z,17.10
2018-07-02T04:33:52.951Z,17.10
2018-07-02T04:36:20.413Z,17.10
2018-07-02T04:38:48.008Z,17.10
2018-07-02T04:41:15.429Z,17.10
2018-07-02T04:43:42.854Z,17.10
2018-07-02T04:46:10.262Z,17.20
2018-07-02T04:48:37.805Z,17.20
2018-07-02T04:51:05.536Z,17.20
2018-07-02T04:53:32.952Z,17.20
2018-07-02T04:56:00.409Z,17.30
2018-07-02T04:58:27.859Z,17.30
2018-07-02T05:00:55.443Z,17.30
2018-07-02T05:03:22.972Z,17.40
2018-07-02T05:05:50.416Z,17.40
2018-07-02T05:08:17.941Z,17.40
2018-07-02T05:13:12.935Z,17.50
2018-07-02T05:15:40.504Z,17.60
2018-07-02T05:18:07.980Z,17.60
2018-07-02T05:20:35.532Z,17.60
2018-07-02T05:23:02.967Z,17.70
2018-07-02T05:25:30.371Z,17.80
2018-07-02T05:27:57.808Z,17.80
2018-07-02T05:30:25.225Z,17.80
2018-07-02T05:32:52.663Z,17.90
2018-07-02T05:35:20.122Z,18.00
2018-07-02T05:37:47.560Z,18.00
2018-07-02T05:42:42.441Z,18.10
2018-07-02T05:45:09.924Z,18.30
2018-07-02T05:47:37.389Z,18.50
2018-07-02T05:50:04.875Z,18.90
2018-07-02T05:52:32.347Z,19.20
2018-07-02T05:54:59.929Z,19.70
2018-07-02T05:57:27.320Z,20.10
2018-07-02T05:59:54.795Z,20.60
2018-07-02T06:02:22.294Z,21.10
2018-07-02T06:04:49.800Z,21.50
2018-07-02T06:07:17.281Z,21.90
2018-07-02T06:09:44.758Z,22.30
2018-07-02T06:12:12.272Z,22.70
2018-07-02T06:14:39.907Z,23.10
2018-07-02T06:17:07.401Z,23.50
2018-07-02T06:19:34.862Z,23.80
2018-07-02T06:22:02.375Z,24.10
2018-07-02T06:24:29.841Z,24.50
2018-07-02T06:26:57.302Z,24.70
2018-07-02T06:29:24.754Z,25.00
2018-07-02T06:31:52.208Z,25.20
2018-07-02T06:34:19.657Z,25.50
2018-07-02T06:36:47.076Z,25.70
2018-07-02T06:39:14.523Z,25.90
2018-07-02T06:41:42.000Z,26.10
2018-07-02T06:44:09.574Z,26.30
2018-07-02T06:46:37.066Z,26.40
2018-07-02T06:49:05.189Z,26.50
2018-07-02T06:51:32.651Z,26.70
2018-07-02T06:54:00.104Z,26.80
2018-07-02T06:56:27.594Z,26.90
2018-07-02T06:58:55.008Z,27.00
2018-07-02T07:01:22.651Z,27.10
2018-07-02T07:03:50.157Z,27.20
2018-07-02T07:11:19.381Z,27.30
2018-07-02T07:13:46.841Z,27.40
2018-07-02T07:16:14.388Z,27.50
2018-07-02T07:18:41.926Z,27.60
2018-07-02T07:21:09.418Z,27.80
2018-07-02T07:23:36.871Z,27.90
2018-07-02T07:26:04.569Z,28.00
2018-07-02T07:28:32.148Z,28.20
2018-07-02T07:30:59.736Z,28.30
2018-07-02T07:33:27.348Z,28.40
2018-07-02T07:35:54.871Z,28.50
2018-07-02T07:38:22.340Z,28.60
2018-07-02T07:43:17.407Z,28.80
2018-07-02T07:45:44.883Z,28.80
2018-07-02T07:48:12.422Z,28.80
2018-07-02T07:50:39.925Z,28.80
2018-07-02T07:53:07.445Z,28.70
2018-07-02T07:55:34.983Z,28.70
2018-07-02T07:58:02.475Z,28.60
2018-07-02T08:00:29.988Z,28.50
2018-07-02T08:02:57.468Z,28.40
2018-07-02T08:05:24.937Z,28.30
2018-07-02T08:07:52.561Z,28.20
2018-07-02T08:10:20.027Z,28.10
2018-07-02T08:12:47.495Z,28.00
2018-07-02T08:15:14.943Z,28.00
2018-07-02T08:17:42.489Z,27.90
2018-07-02T08:20:09.972Z,27.90
2018-07-02T08:22:37.503Z,27.80
2018-07-02T08:25:05.005Z,27.60
2018-07-02T08:27:32.490Z,27.60
2018-07-02T08:29:59.948Z,27.50
2018-07-02T08:32:27.444Z,27.50
2018-07-02T08:34:54.950Z,27.50
2018-07-02T08:37:22.435Z,27.40
2018-07-02T08:39:49.987Z,27.40
2018-07-02T08:42:17.500Z,27.50
2018-07-02T08:44:45.044Z,27.50
2018-07-02T08:47:12.508Z,27.50
2018-07-02T08:49:40.156Z,27.60
2018-07-02T08:52:07.607Z,27.60
2018-07-02T08:54:35.184Z,27.60
2018-07-02T08:57:02.684Z,27.60
2018-07-02T08:59:30.199Z,27.60
2018-07-02T09:01:57.727Z,27.70
2018-07-02T09:04:25.181Z,27.70
2018-07-02T09:06:52.676Z,27.80
2018-07-02T09:09:20.125Z,27.90
2018-07-02T09:11:47.636Z,27.90
2018-07-02T09:14:15.110Z,28.00
2018-07-02T09:16:42.624Z,28.10
2018-07-02T09:19:10.129Z,28.10
2018-07-02T09:21:37.644Z,28.10
2018-07-02T09:24:05.179Z,28.20
2018-07-02T09:26:32.664Z,28.20
2018-07-02T09:29:00.137Z,28.20
2018-07-02T09:31:27.944Z,28.20
2018-07-02T09:33:55.403Z,28.20
2018-07-02T09:36:22.969Z,28.20
2018-07-02T09:38:50.532Z,28.30
2018-07-02T09:41:18.043Z,28.40
2018-07-02T09:43:45.528Z,28.40
2018-07-02T09:46:13.016Z,28.50
2018-07-02T09:48:40.528Z,28.50
2018-07-02T09:51:08.070Z,28.50
2018-07-02T09:53:35.535Z,28.50
2018-07-02T09:56:03.023Z,28.50
2018-07-02T09:58:30.487Z,28.50
2018-07-02T10:00:58.024Z,28.50
2018-07-02T10:03:25.549Z,28.60
2018-07-02T10:05:53.027Z,28.70
2018-07-02T10:08:20.691Z,28.70
2018-07-02T10:10:48.213Z,28.80
2018-07-02T10:13:15.685Z,28.90
2018-07-02T10:15:43.209Z,29.00
2018-07-02T10:18:10.747Z,29.10
2018-07-02T10:20:38.285Z,29.10
2018-07-02T10:23:05.935Z,29.20
2018-07-02T10:25:33.487Z,29.30
2018-07-02T10:28:00.979Z,29.40
2018-07-02T10:30:28.529Z,29.40
2018-07-02T10:32:56.026Z,29.40
2018-07-02T10:35:23.541Z,29.50
2018-07-02T10:37:51.866Z,29.50
2018-07-02T10:40:19.350Z,29.50
2018-07-02T10:42:46.816Z,29.60
2018-07-02T10:45:14.693Z,29.60
2018-07-02T10:47:42.251Z,29.70
2018-07-02T10:50:09.821Z,29.70
2018-07-02T10:52:37.366Z,29.70
2018-07-02T10:55:05.032Z,29.80
2018-07-02T10:57:32.573Z,29.80
2018-07-02T11:00:00.119Z,29.80
2018-07-02T11:02:27.675Z,29.80
2018-07-02T11:04:55.220Z,29.80
2018-07-02T11:07:22.922Z,29.80
2018-07-02T11:09:50.428Z,29.80
2018-07-02T11:12:18.002Z,29.90
2018-07-02T11:14:45.490Z,29.90
2018-07-02T11:17:13.245Z,30.00
2018-07-02T11:19:47.303Z,30.00
2018-07-02T11:22:14.835Z,30.10
2018-07-02T11:24:42.316Z,30.10
2018-07-02T11:27:09.858Z,30.20
2018-07-02T11:29:37.476Z,30.20
2018-07-02T11:32:05.050Z,30.30
2018-07-02T11:34:32.692Z,30.30
2018-07-02T11:37:00.359Z,30.30
2018-07-02T11:39:28.037Z,30.30
2018-07-02T11:41:55.541Z,30.40
2018-07-02T11:44:23.031Z,30.50
2018-07-02T11:46:50.550Z,30.50
2018-07-02T11:49:18.053Z,30.50
2018-07-02T11:51:45.679Z,30.50
2018-07-02T11:54:13.247Z,30.50
2018-07-02T11:56:40.700Z,30.50
2018-07-02T11:59:08.207Z,30.50
2018-07-02T12:01:35.729Z,30.50
2018-07-02T12:04:03.267Z,30.60
2018-07-02T12:06:30.884Z,30.60
2018-07-02T12:08:58.359Z,30.60
2018-07-02T12:11:25.839Z,30.70
2018-07-02T12:13:53.480Z,30.70
2018-07-02T12:16:20.968Z,30.80
2018-07-02T12:18:48.683Z,31.00
2018-07-02T12:21:16.429Z,31.00
2018-07-02T12:23:43.912Z,31.10
2018-07-02T12:26:11.426Z,31.20
2018-07-02T12:28:38.978Z,31.20
2018-07-02T12:31:06.459Z,31.30
2018-07-02T12:33:34.036Z,31.30
2018-07-02T12:36:01.491Z,31.30
2018-07-02T12:38:29.007Z,31.30
2018-07-02T12:40:56.497Z,31.30
2018-07-02T12:43:23.964Z,31.30
2018-07-02T12:45:51.470Z,31.30
2018-07-02T12:48:18.978Z,31.30
2018-07-02T12:50:46.519Z,31.40
2018-07-02T12:53:14.056Z,31.40
2018-07-02T12:55:41.664Z,31.50
2018-07-02T13:00:36.682Z,31.50
2018-07-02T13:03:04.329Z,31.40
2018-07-02T13:05:31.832Z,31.50
2018-07-02T13:07:59.379Z,31.60
2018-07-02T13:10:26.927Z,31.60
2018-07-02T13:12:54.472Z,31.60
2018-07-02T13:15:21.882Z,31.60
2018-07-02T13:17:49.322Z,31.60
2018-07-02T13:20:16.867Z,31.70
2018-07-02T13:22:44.367Z,31.70
2018-07-02T13:25:11.847Z,31.70
2018-07-02T13:27:39.359Z,31.70
2018-07-02T13:30:07.012Z,31.70
2018-07-02T13:32:34.549Z,31.70
2018-07-02T13:35:02.079Z,31.60
2018-07-02T13:37:29.683Z,31.60
2018-07-02T13:39:57.247Z,31.60
2018-07-02T13:42:24.859Z,31.60
2018-07-02T13:44:52.332Z,31.60
2018-07-02T13:47:19.851Z,31.60
2018-07-02T13:49:47.341Z,31.60
2018-07-02T13:52:14.861Z,31.60
2018-07-02T13:54:42.398Z,31.60
2018-07-02T13:57:09.895Z,31.60
2018-07-02T13:59:37.374Z,31.60
2018-07-02T14:02:04.911Z,31.60
2018-07-02T14:04:32.426Z,31.60
2018-07-02T14:07:00.014Z,31.60
2018-07-02T14:09:27.528Z,31.60
2018-07-02T14:11:55.047Z,31.70
2018-07-02T14:14:22.623Z,31.70
2018-07-02T14:16:50.111Z,31.80
2018-07-02T14:19:17.700Z,31.80
2018-07-02T14:21:45.372Z,31.90
2018-07-02T14:24:13.165Z,31.90
2018-07-02T14:26:40.699Z,31.90
2018-07-02T14:29:08.220Z,31.90
2018-07-02T14:31:35.718Z,31.90
2018-07-02T14:34:03.285Z,31.90
2018-07-02T14:36:30.995Z,31.90
2018-07-02T14:41:26.004Z,32.00
2018-07-02T14:46:21.026Z,32.10
2018-07-02T14:48:48.565Z,32.10
2018-07-02T14:51:16.438Z,32.10
2018-07-02T14:53:43.894Z,32.10
2018-07-02T14:56:11.593Z,32.10
2018-07-02T14:58:39.155Z,32.10
2018-07-02T15:01:06.717Z,32.10
2018-07-02T15:03:34.220Z,32.10
2018-07-02T15:06:01.815Z,32.10
2018-07-02T15:10:56.859Z,32.10
2018-07-02T15:13:24.453Z,32.10
2018-07-02T15:15:51.943Z,32.10
2018-07-02T15:18:19.524Z,32.10
2018-07-02T15:20:47.114Z,32.10
2018-07-02T15:23:14.920Z,32.10
2018-07-02T15:25:42.449Z,32.10
2018-07-02T15:28:10.015Z,32.10
2018-07-02T15:30:37.758Z,32.00
2018-07-02T15:33:05.462Z,32.10
2018-07-02T15:35:32.911Z,32.10
2018-07-02T15:38:00.575Z,32.10
2018-07-02T15:40:28.219Z,32.10
2018-07-02T15:42:55.671Z,32.10
2018-07-02T15:45:23.093Z,32.10
2018-07-02T15:47:50.820Z,32.10
2018-07-02T15:50:18.253Z,32.10
2018-07-02T15:52:45.753Z,32.10
2018-07-02T15:55:13.239Z,32.10
2018-07-02T15:57:40.716Z,32.10
2018-07-02T16:00:08.565Z,32.10
2018-07-02T16:02:36.086Z,32.10
2018-07-02T16:05:04.293Z,32.10
2018-07-02T16:07:31.608Z,32.20
2018-07-02T16:12:26.557Z,32.20
2018-07-02T16:14:54.065Z,32.20
2018-07-02T16:17:21.569Z,32.20
2018-07-02T16:19:49.092Z,32.20
2018-07-02T16:22:16.560Z,32.20
2018-07-02T16:24:44.029Z,32.10
2018-07-02T16:27:11.459Z,32.10
2018-07-02T16:32:06.390Z,32.00
2018-07-02T16:34:33.810Z,32.00
2018-07-02T16:37:01.248Z,31.90
2018-07-02T16:39:28.702Z,31.90
2018-07-02T16:41:56.179Z,31.80
2018-07-02T16:44:23.605Z,31.70
2018-07-02T16:46:51.034Z,31.70
2018-07-02T16:49:18.467Z,31.60
2018-07-02T16:51:45.879Z,31.60
2018-07-02T16:54:13.654Z,31.60
2018-07-02T16:56:41.055Z,31.50
2018-07-02T16:59:08.772Z,31.40
2018-07-02T17:01:36.202Z,31.30
2018-07-02T17:04:03.650Z,31.30
2018-07-02T17:06:31.080Z,31.20
2018-07-02T17:08:58.506Z,31.20
2018-07-02T17:11:25.900Z,31.20
2018-07-02T17:13:53.564Z,31.20
2018-07-02T17:16:21.004Z,31.30
2018-07-02T17:18:48.391Z,31.30
2018-07-02T17:21:15.807Z,31.50
2018-07-02T17:23:43.335Z,31.50
2018-07-02T17:26:10.817Z,31.60
2018-07-02T17:28:38.247Z,31.80
2018-07-02T17:31:05.817Z,31.80
2018-07-02T17:33:33.267Z,32.10
2018-07-02T17:36:00.724Z,32.20
2018-07-02T17:38:28.167Z,32.30
2018-07-02T17:40:55.615Z,32.50
2018-07-02T17:43:23.099Z,32.60
2018-07-02T17:45:50.536Z,32.60
2018-07-02T17:48:17.948Z,32.60
2018-07-02T17:50:45.379Z,32.70
2018-07-02T17:53:12.887Z,32.70
2018-07-02T17:55:40.298Z,32.70
2018-07-02T17:58:07.768Z,32.70
2018-07-02T18:00:35.320Z,32.70
2018-07-02T18:03:02.756Z,32.70
2018-07-02T18:05:30.222Z,32.80
2018-07-02T18:07:59.283Z,32.80
2018-07-02T18:10:26.716Z,32.90
2018-07-02T18:15:21.667Z,33.00
2018-07-02T18:17:49.092Z,33.10
2018-07-02T18:20:16.683Z,33.20
2018-07-02T18:22:44.295Z,33.30
2018-07-02T18:25:11.773Z,33.40
2018-07-02T18:27:39.206Z,33.50
2018-07-02T18:30:07.353Z,33.60
2018-07-02T18:32:34.792Z,33.70
2018-07-02T18:35:02.279Z,33.70
2018-07-02T18:37:29.750Z,33.70
2018-07-02T18:42:24.583Z,33.70
2018-07-02T18:44:51.956Z,33.60
2018-07-02T18:47:19.380Z,33.60
2018-07-02T18:49:46.859Z,33.60
2018-07-02T18:52:14.251Z,33.50
2018-07-02T18:54:41.679Z,33.40
2018-07-02T18:57:09.220Z,33.40
2018-07-02T18:59:36.648Z,33.30
2018-07-02T19:02:04.375Z,33.30
2018-07-02T19:04:31.818Z,33.30
2018-07-02T19:06:59.387Z,33.20
2018-07-02T19:09:26.810Z,33.10
2018-07-02T19:11:54.235Z,33.10
2018-07-02T19:14:21.637Z,33.00
2018-07-02T19:16:49.096Z,32.90
2018-07-02T19:19:16.499Z,32.90
2018-07-02T19:24:11.400Z,32.60
2018-07-02T19:26:38.857Z,32.60
2018-07-02T19:29:06.492Z,32.30
2018-07-02T19:31:33.959Z,32.10
2018-07-02T19:34:01.612Z,31.70
2018-07-02T19:36:29.037Z,31.40
2018-07-02T19:38:56.442Z,31.10
2018-07-02T19:41:23.892Z,30.70
2018-07-02T19:43:51.298Z,30.30
2018-07-02T19:46:18.723Z,30.00
2018-07-02T19:48:46.174Z,29.70
2018-07-02T19:51:13.563Z,29.40
2018-07-02T19:53:40.959Z,29.10
2018-07-02T19:56:08.442Z,28.80
2018-07-02T19:58:35.946Z,28.50
2018-07-02T20:01:03.395Z,28.30
2018-07-02T20:03:30.884Z,28.00
2018-07-02T20:05:58.334Z,27.70
2018-07-02T20:08:25.757Z,27.50
2018-07-02T20:10:53.404Z,27.30
2018-07-02T20:13:21.211Z,27.10
2018-07-02T20:15:48.633Z,26.90
2018-07-02T20:18:16.121Z,26.70
2018-07-02T20:20:43.582Z,26.50
2018-07-02T20:23:11.027Z,26.40
2018-07-02T20:25:38.453Z,26.20
2018-07-02T20:28:05.941Z,26.00
2018-07-02T20:30:33.391Z,25.90
2018-07-02T20:33:00.849Z,25.70
2018-07-02T20:35:28.291Z,25.60
2018-07-02T20:37:55.721Z,25.40
2018-07-02T20:40:23.252Z,25.30
2018-07-02T20:42:50.695Z,25.20
2018-07-02T20:45:18.106Z,25.00
2018-07-02T20:47:45.619Z,24.90
2018-07-02T20:50:13.068Z,24.80
2018-07-02T20:52:40.538Z,24.70
2018-07-02T20:55:08.099Z,24.60
2018-07-02T20:57:35.607Z,24.50
2018-07-02T21:00:04.203Z,24.30
2018-07-02T21:04:59.148Z,24.10
2018-07-02T21:07:26.637Z,24.00
2018-07-02T21:09:54.119Z,23.90
2018-07-02T21:12:21.535Z,23.80
2018-07-02T21:14:48.976Z,23.70
2018-07-02T21:17:16.407Z,23.60
2018-07-02T21:19:44.004Z,23.50
2018-07-02T21:22:11.435Z,23.40
2018-07-02T21:27:06.450Z,23.30
2018-07-02T21:29:33.847Z,23.20
2018-07-02T21:32:01.684Z,23.10
2018-07-02T21:34:29.078Z,23.10
2018-07-02T21:36:56.514Z,23.00
2018-07-02T21:39:23.940Z,22.90
2018-07-02T21:41:51.341Z,22.90
2018-07-02T21:44:18.785Z,22.80
2018-07-02T21:46:46.239Z,22.70
2018-07-02T21:49:13.641Z,22.70
2018-07-02T21:51:41.084Z,22.60
2018-07-02T21:54:08.498Z,22.60
2018-07-02T21:56:36.339Z,22.50
2018-07-02T21:59:04.041Z,22.40
2018-07-02T22:01:31.460Z,22.40
2018-07-02T22:03:58.883Z,22.30
2018-07-02T22:06:26.416Z,22.30
2018-07-02T22:08:53.849Z,22.20
2018-07-02T22:11:21.306Z,22.20
2018-07-02T22:16:16.186Z,22.10
2018-07-02T22:18:43.634Z,22.10
2018-07-02T22:21:11.091Z,22.00
2018-07-02T22:23:38.523Z,22.00
2018-07-02T22:26:06.093Z,21.90
2018-07-02T22:28:33.534Z,21.90
2018-07-02T22:31:01.039Z,21.80
2018-07-02T22:33:28.508Z,21.80
2018-07-02T22:35:55.955Z,21.70
2018-07-02T22:38:23.402Z,21.60
2018-07-02T22:40:51.213Z,21.60
2018-07-02T22:43:18.693Z,21.60
2018-07-02T22:48:13.559Z,21.40
2018-07-02T22:50:41.415Z,21.40
2018-07-02T22:55:47.891Z,21.20
2018-07-02T22:58:15.311Z,21.10
2018-07-02T23:00:42.756Z,21.10
2018-07-02T23:03:10.213Z,21.00
2018-07-02T23:05:37.662Z,21.00
2018-07-02T23:08:05.343Z,21.00
2018-07-02T23:10:33.007Z,20.90
2018-07-02T23:13:00.451Z,20.80
2018-07-02T23:15:27.863Z,20.80
2018-07-02T23:17:55.293Z,20.80
2018-07-02T23:20:22.706Z,20.70
2018-07-02T23:23:00.419Z,20.70
2018-07-02T23:25:28.505Z,20.70
2018-07-02T23:27:57.283Z,20.60
2018-07-02T23:30:24.771Z,20.60
2018-07-02T23:32:52.184Z,20.50
2018-07-02T23:35:19.670Z,20.50
2018-07-02T23:37:48.744Z,20.40
2018-07-02T23:40:16.410Z,20.40
2018-07-02T23:42:43.812Z,20.30
2018-07-02T23:45:11.453Z,20.20
2018-07-02T23:47:38.952Z,20.30
2018-07-02T23:50:06.584Z,20.20
2018-07-02T23:52:34.227Z,20.20
2018-07-02T23:55:01.657Z,20.10
2018-07-02T23:57:29.072Z,20.10
2018-07-02T23:59:56.583Z,20.10
